sensor_id;sensor_type;location;lat;lon;timestamp;pressure;altitude;pressure_sealevel;temperature;humidity
10718;BME280;13513;42.700;23.124;2022-11-15T00:01:09;93477.53;;;5.65;100.00
10718;BME280;13513;42.700;23.124;2022-11-15T00:03:41;93473.39;;;5.66;100.00
10718;BME280;13513;42.700;23.124;2022-11-15T00:06:11;93471.69;;;5.69;100.00
10718;BME280;13513;42.700;23.124;2022-11-15T00:08:42;93471.78;;;5.72;100.00
10718;BME280;13513;42.700;23.124;2022-11-15T00:11:13;93474.00;;;5.75;100.00
10718;BME280;13513;42.700;23.124;2022-11-15T00:13:43;93467.34;;;5.79;100.00
10718;BME280;13513;42.700;23.124;2022-11-15T00:16:14;93467.34;;;5.79;100.00
10718;BME280;13513;42.700;23.124;2022-11-15T00:18:45;93464.02;;;5.81;100.00
10718;BME280;13513;42.700;23.124;2022-11-15T00:21:16;93466.23;;;5.77;100.00
10718;BME280;13513;42.700;23.124;2022-11-15T00:23:48;93469.34;;;5.77;100.00
10718;BME280;13513;42.700;23.124;2022-11-15T00:26:19;93460.08;;;5.74;100.00
10718;BME280;13513;42.700;23.124;2022-11-15T00:28:51;93458.04;;;5.76;100.00
10718;BME280;13513;42.700;23.124;2022-11-15T00:31:22;93463.72;;;5.73;100.00
10718;BME280;13513;42.700;23.124;2022-11-15T00:33:53;93467.23;;;5.70;100.00
10718;BME280;13513;42.700;23.124;2022-11-15T00:36:24;93467.05;;;5.65;100.00
10718;BME280;13513;42.700;23.124;2022-11-15T00:38:55;93462.72;;;5.61;100.00
10718;BME280;13513;42.700;23.124;2022-11-15T00:41:26;93456.86;;;5.59;100.00
10718;BME280;13513;42.700;23.124;2022-11-15T00:43:57;93457.59;;;5.57;100.00
10718;BME280;13513;42.700;23.124;2022-11-15T00:46:28;93457.17;;;5.54;100.00
10718;BME280;13513;42.700;23.124;2022-11-15T00:48:58;93453.63;;;5.51;100.00
10718;BME280;13513;42.700;23.124;2022-11-15T00:51:28;93459.69;;;5.51;100.00
10718;BME280;13513;42.700;23.124;2022-11-15T00:53:58;93454.16;;;5.50;100.00
10718;BME280;13513;42.700;23.124;2022-11-15T00:56:29;93456.78;;;5.50;100.00
10718;BME280;13513;42.700;23.124;2022-11-15T00:59:00;93451.53;;;5.50;100.00
10718;BME280;13513;42.700;23.124;2022-11-15T01:01:31;93442.56;;;5.49;100.00
10718;BME280;13513;42.700;23.124;2022-11-15T01:04:02;93442.47;;;5.46;100.00
10718;BME280;13513;42.700;23.124;2022-11-15T01:06:35;93447.81;;;5.42;100.00
10718;BME280;13513;42.700;23.124;2022-11-15T01:09:05;93441.47;;;5.41;100.00
10718;BME280;13513;42.700;23.124;2022-11-15T01:11:36;93443.17;;;5.38;100.00
10718;BME280;13513;42.700;23.124;2022-11-15T01:14:07;93449.92;;;5.36;100.00
10718;BME280;13513;42.700;23.124;2022-11-15T01:16:38;93450.31;;;5.33;100.00
10718;BME280;13513;42.700;23.124;2022-11-15T01:19:08;93453.86;;;5.30;100.00
10718;BME280;13513;42.700;23.124;2022-11-15T01:21:40;93456.38;;;5.27;100.00
10718;BME280;13513;42.700;23.124;2022-11-15T01:24:12;93451.14;;;5.27;100.00
10718;BME280;13513;42.700;23.124;2022-11-15T01:26:42;93451.23;;;5.30;100.00
10718;BME280;13513;42.700;23.124;2022-11-15T01:29:13;93445.08;;;5.27;100.00
10718;BME280;13513;42.700;23.124;2022-11-15T01:31:44;93432.30;;;5.34;100.00
10718;BME280;13513;42.700;23.124;2022-11-15T01:34:15;93432.30;;;5.34;100.00
10718;BME280;13513;42.700;23.124;2022-11-15T01:36:46;93430.47;;;5.28;100.00
10718;BME280;13513;42.700;23.124;2022-11-15T01:39:16;93434.91;;;5.21;100.00
10718;BME280;13513;42.700;23.124;2022-11-15T01:41:47;93441.35;;;5.19;100.00
10718;BME280;13513;42.700;23.124;2022-11-15T01:47:26;93427.54;;;5.14;100.00
10718;BME280;13513;42.700;23.124;2022-11-15T01:50:10;93435.10;;;5.13;100.00
10718;BME280;13513;42.700;23.124;2022-11-15T01:52:35;93434.91;;;5.08;100.00
10718;BME280;13513;42.700;23.124;2022-11-15T01:55:11;93431.57;;;5.10;100.00
10718;BME280;13513;42.700;23.124;2022-11-15T01:57:41;93428.27;;;5.12;100.00
10718;BME280;13513;42.700;23.124;2022-11-15T02:03:03;93435.30;;;5.12;100.00
10718;BME280;13513;42.700;23.124;2022-11-15T02:05:34;93430.06;;;5.12;100.00
10718;BME280;13513;42.700;23.124;2022-11-15T02:08:06;93423.84;;;5.13;100.00
10718;BME280;13513;42.700;23.124;2022-11-15T02:13:09;93429.47;;;5.10;100.00
10718;BME280;13513;42.700;23.124;2022-11-15T02:15:46;93429.47;;;5.10;100.00
10718;BME280;13513;42.700;23.124;2022-11-15T02:18:23;93426.95;;;5.12;100.00
10718;BME280;13513;42.700;23.124;2022-11-15T02:20:55;93422.53;;;5.13;100.00
10718;BME280;13513;42.700;23.124;2022-11-15T02:23:56;93414.97;;;5.14;100.00
10718;BME280;13513;42.700;23.124;2022-11-15T02:29:35;93418.48;;;5.10;100.00
10718;BME280;13513;42.700;23.124;2022-11-15T02:32:09;93406.49;;;5.12;100.00
10718;BME280;13513;42.700;23.124;2022-11-15T02:37:34;93404.80;;;5.02;100.00
10718;BME280;13513;42.700;23.124;2022-11-15T02:40:01;93404.80;;;5.02;100.00
10718;BME280;13513;42.700;23.124;2022-11-15T02:42:36;93404.89;;;5.04;100.00
10718;BME280;13513;42.700;23.124;2022-11-15T02:45:24;93408.30;;;5.05;100.00
10718;BME280;13513;42.700;23.124;2022-11-15T02:47:54;93410.33;;;5.03;100.00
10718;BME280;13513;42.700;23.124;2022-11-15T02:50:28;93405.59;;;4.96;100.00
10718;BME280;13513;42.700;23.124;2022-11-15T02:52:58;93402.87;;;4.93;100.00
10718;BME280;13513;42.700;23.124;2022-11-15T02:55:33;93406.70;;;4.97;100.00
10718;BME280;13513;42.700;23.124;2022-11-15T02:58:23;93411.22;;;4.93;100.00
10718;BME280;13513;42.700;23.124;2022-11-15T03:00:58;93411.22;;;4.93;100.00
10718;BME280;13513;42.700;23.124;2022-11-15T03:09:04;93408.98;;;4.64;100.00
10718;BME280;13513;42.700;23.124;2022-11-15T03:11:34;93409.67;;;4.68;100.00
10718;BME280;13513;42.700;23.124;2022-11-15T03:14:41;93405.25;;;4.69;100.00
10718;BME280;13513;42.700;23.124;2022-11-15T03:19:31;93402.34;;;4.74;100.00
10718;BME280;13513;42.700;23.124;2022-11-15T03:22:02;93408.59;;;4.80;100.00
10718;BME280;13513;42.700;23.124;2022-11-15T03:24:33;93407.87;;;4.82;100.00
10718;BME280;13513;42.700;23.124;2022-11-15T03:27:07;93404.47;;;4.88;100.00
10718;BME280;13513;42.700;23.124;2022-11-15T03:29:39;93401.66;;;4.89;100.00
10718;BME280;13513;42.700;23.124;2022-11-15T03:32:11;93397.24;;;4.90;100.00
10718;BME280;13513;42.700;23.124;2022-11-15T03:34:47;93395.21;;;4.92;100.00
10718;BME280;13513;42.700;23.124;2022-11-15T03:37:17;93393.51;;;4.95;100.00
10718;BME280;13513;42.700;23.124;2022-11-15T03:39:48;93388.86;;;4.97;100.00
10718;BME280;13513;42.700;23.124;2022-11-15T03:42:25;93388.66;;;4.98;100.00
10718;BME280;13513;42.700;23.124;2022-11-15T03:44:58;93381.44;;;4.94;100.00
10718;BME280;13513;42.700;23.124;2022-11-15T03:47:33;93387.98;;;4.94;100.00
10718;BME280;13513;42.700;23.124;2022-11-15T03:50:07;93378.69;;;4.91;100.00
10718;BME280;13513;42.700;23.124;2022-11-15T03:52:38;93380.52;;;4.91;100.00
10718;BME280;13513;42.700;23.124;2022-11-15T03:55:11;93380.13;;;4.94;100.00
10718;BME280;13513;42.700;23.124;2022-11-15T03:57:40;93372.86;;;4.96;100.00
10718;BME280;13513;42.700;23.124;2022-11-15T04:00:11;93378.72;;;4.98;100.00
10718;BME280;13513;42.700;23.124;2022-11-15T04:02:42;93370.03;;;5.04;100.00
10718;BME280;13513;42.700;23.124;2022-11-15T04:05:13;93367.43;;;5.17;100.00
10718;BME280;13513;42.700;23.124;2022-11-15T04:07:44;93367.43;;;5.17;100.00
10718;BME280;13513;42.700;23.124;2022-11-15T04:10:15;93378.81;;;5.26;100.00
10718;BME280;13513;42.700;23.124;2022-11-15T04:12:46;93368.39;;;5.42;100.00
10718;BME280;13513;42.700;23.124;2022-11-15T04:15:19;93368.39;;;5.42;100.00
10718;BME280;13513;42.700;23.124;2022-11-15T04:17:54;93373.02;;;5.53;100.00
10718;BME280;13513;42.700;23.124;2022-11-15T04:20:26;93367.75;;;5.59;100.00
10718;BME280;13513;42.700;23.124;2022-11-15T04:23:17;93369.97;;;5.62;100.00
10718;BME280;13513;42.700;23.124;2022-11-15T04:26:06;93368.55;;;5.66;100.00
10718;BME280;13513;42.700;23.124;2022-11-15T04:28:37;93371.34;;;5.71;100.00
10718;BME280;13513;42.700;23.124;2022-11-15T04:31:24;93370.22;;;5.76;100.00
10718;BME280;13513;42.700;23.124;2022-11-15T04:33:54;93360.95;;;5.80;100.00
10718;BME280;13513;42.700;23.124;2022-11-15T04:36:25;93360.47;;;5.81;100.00
10718;BME280;13513;42.700;23.124;2022-11-15T04:39:12;93361.45;;;5.86;100.00
10718;BME280;13513;42.700;23.124;2022-11-15T04:41:43;93365.59;;;5.85;100.00
10718;BME280;13513;42.700;23.124;2022-11-15T04:44:14;93363.37;;;5.82;100.00
10718;BME280;13513;42.700;23.124;2022-11-15T04:46:45;93364.80;;;5.84;100.00
10718;BME280;13513;42.700;23.124;2022-11-15T04:49:16;93368.50;;;5.86;100.00
10718;BME280;13513;42.700;23.124;2022-11-15T04:51:46;93377.80;;;5.88;100.00
10718;BME280;13513;42.700;23.124;2022-11-15T04:54:17;93374.27;;;5.85;100.00
10718;BME280;13513;42.700;23.124;2022-11-15T04:56:48;93372.25;;;5.74;100.00
10718;BME280;13513;42.700;23.124;2022-11-15T04:59:19;93368.73;;;5.71;100.00
10718;BME280;13513;42.700;23.124;2022-11-15T05:01:49;93376.59;;;5.71;100.00
10718;BME280;13513;42.700;23.124;2022-11-15T05:04:20;93371.75;;;5.68;100.00
10718;BME280;13513;42.700;23.124;2022-11-15T05:06:52;93372.66;;;5.71;100.00
10718;BME280;13513;42.700;23.124;2022-11-15T05:09:22;93369.45;;;5.69;100.00
10718;BME280;13513;42.700;23.124;2022-11-15T05:11:53;93363.48;;;5.71;100.00
10718;BME280;13513;42.700;23.124;2022-11-15T05:14:23;93358.95;;;5.76;100.00
10718;BME280;13513;42.700;23.124;2022-11-15T05:16:54;93359.64;;;5.74;100.00
10718;BME280;13513;42.700;23.124;2022-11-15T05:19:26;93353.70;;;5.76;100.00
10718;BME280;13513;42.700;23.124;2022-11-15T05:21:56;93356.91;;;5.78;100.00
10718;BME280;13513;42.700;23.124;2022-11-15T05:24:27;93351.98;;;5.72;100.00
10718;BME280;13513;42.700;23.124;2022-11-15T05:26:58;93353.93;;;5.68;100.00
10718;BME280;13513;42.700;23.124;2022-11-15T05:29:29;93351.42;;;5.64;100.00
10718;BME280;13513;42.700;23.124;2022-11-15T05:32:00;93352.25;;;5.51;100.00
10718;BME280;13513;42.700;23.124;2022-11-15T05:34:30;93358.00;;;5.44;100.00
10718;BME280;13513;42.700;23.124;2022-11-15T05:37:01;93363.95;;;5.49;100.00
10718;BME280;13513;42.700;23.124;2022-11-15T05:39:33;93357.11;;;5.48;100.00
10718;BME280;13513;42.700;23.124;2022-11-15T05:42:11;93357.11;;;5.48;100.00
10718;BME280;13513;42.700;23.124;2022-11-15T05:44:44;93356.20;;;5.45;100.00
10718;BME280;13513;42.700;23.124;2022-11-15T05:47:17;93354.80;;;5.29;100.00
10718;BME280;13513;42.700;23.124;2022-11-15T05:49:50;93354.80;;;5.29;100.00
10718;BME280;13513;42.700;23.124;2022-11-15T05:52:22;93361.66;;;5.24;100.00
10718;BME280;13513;42.700;23.124;2022-11-15T05:54:53;93363.80;;;5.18;100.00
10718;BME280;13513;42.700;23.124;2022-11-15T05:57:25;93365.18;;;4.68;100.00
10718;BME280;13513;42.700;23.124;2022-11-15T05:59:55;93365.18;;;4.68;100.00
10718;BME280;13513;42.700;23.124;2022-11-15T06:02:26;93368.70;;;4.52;100.00
10718;BME280;13513;42.700;23.124;2022-11-15T06:04:56;93374.45;;;4.21;100.00
10718;BME280;13513;42.700;23.124;2022-11-15T06:07:28;93380.03;;;4.05;100.00
10718;BME280;13513;42.700;23.124;2022-11-15T06:09:59;93373.63;;;3.84;100.00
10718;BME280;13513;42.700;23.124;2022-11-15T06:12:30;93379.13;;;3.61;100.00
10718;BME280;13513;42.700;23.124;2022-11-15T06:15:01;93384.69;;;3.62;100.00
10718;BME280;13513;42.700;23.124;2022-11-15T06:17:32;93380.63;;;3.60;100.00
10718;BME280;13513;42.700;23.124;2022-11-15T06:20:06;93375.77;;;3.67;100.00
10718;BME280;13513;42.700;23.124;2022-11-15T06:22:36;93385.17;;;3.62;100.00
10718;BME280;13513;42.700;23.124;2022-11-15T06:25:07;93381.58;;;3.86;100.00
10718;BME280;13513;42.700;23.124;2022-11-15T06:27:38;93378.43;;;4.04;100.00
10718;BME280;13513;42.700;23.124;2022-11-15T06:30:09;93374.54;;;4.17;100.00
10718;BME280;13513;42.700;23.124;2022-11-15T06:32:40;93372.66;;;4.28;100.00
10718;BME280;13513;42.700;23.124;2022-11-15T06:35:12;93376.02;;;4.46;100.00
10718;BME280;13513;42.700;23.124;2022-11-15T06:37:41;93372.73;;;4.67;100.00
10718;BME280;13513;42.700;23.124;2022-11-15T06:40:12;93377.48;;;4.81;100.00
10718;BME280;13513;42.700;23.124;2022-11-15T06:42:43;93370.94;;;4.81;100.00
10718;BME280;13513;42.700;23.124;2022-11-15T06:45:14;93369.45;;;5.02;100.00
10718;BME280;13513;42.700;23.124;2022-11-15T06:47:47;93368.02;;;4.86;100.00
10718;BME280;13513;42.700;23.124;2022-11-15T06:50:17;93370.45;;;5.14;100.00
10718;BME280;13513;42.700;23.124;2022-11-15T06:52:50;93373.44;;;5.43;100.00
10718;BME280;13513;42.700;23.124;2022-11-15T06:55:19;93360.02;;;5.49;100.00
10718;BME280;13513;42.700;23.124;2022-11-15T06:57:51;93360.02;;;5.49;100.00
10718;BME280;13513;42.700;23.124;2022-11-15T07:00:23;93359.91;;;5.53;100.00
10718;BME280;13513;42.700;23.124;2022-11-15T07:02:53;93357.65;;;5.63;100.00
10718;BME280;13513;42.700;23.124;2022-11-15T07:05:24;93352.22;;;5.71;100.00
10718;BME280;13513;42.700;23.124;2022-11-15T07:07:56;93351.26;;;5.94;100.00
10718;BME280;13513;42.700;23.124;2022-11-15T07:10:29;93356.45;;;6.22;100.00
10718;BME280;13513;42.700;23.124;2022-11-15T07:13:00;93348.32;;;6.52;100.00
10718;BME280;13513;42.700;23.124;2022-11-15T07:15:30;93352.94;;;6.72;100.00
10718;BME280;13513;42.700;23.124;2022-11-15T07:18:02;93355.88;;;6.73;100.00
10718;BME280;13513;42.700;23.124;2022-11-15T07:20:33;93358.77;;;6.90;100.00
10718;BME280;13513;42.700;23.124;2022-11-15T07:23:04;93362.00;;;6.92;100.00
10718;BME280;13513;42.700;23.124;2022-11-15T07:25:37;93362.70;;;6.90;100.00
10718;BME280;13513;42.700;23.124;2022-11-15T07:28:06;93358.40;;;6.86;100.00
10718;BME280;13513;42.700;23.124;2022-11-15T07:30:37;93357.05;;;6.62;100.00
10718;BME280;13513;42.700;23.124;2022-11-15T07:33:08;93360.99;;;6.46;100.00
10718;BME280;13513;42.700;23.124;2022-11-15T07:35:39;93353.62;;;6.46;100.00
10718;BME280;13513;42.700;23.124;2022-11-15T07:38:11;93360.83;;;6.57;100.00
10718;BME280;13513;42.700;23.124;2022-11-15T07:40:41;93360.99;;;6.46;100.00
10718;BME280;13513;42.700;23.124;2022-11-15T07:43:12;93368.82;;;6.09;100.00
10718;BME280;13513;42.700;23.124;2022-11-15T07:45:43;93365.33;;;5.99;100.00
10718;BME280;13513;42.700;23.124;2022-11-15T07:48:14;93359.73;;;6.18;100.00
10718;BME280;13513;42.700;23.124;2022-11-15T07:50:45;93368.88;;;6.40;100.00
10718;BME280;13513;42.700;23.124;2022-11-15T07:53:15;93366.19;;;6.68;100.00
10718;BME280;13513;42.700;23.124;2022-11-15T07:55:46;93361.50;;;6.92;100.00
10718;BME280;13513;42.700;23.124;2022-11-15T07:58:17;93360.84;;;7.12;100.00
10718;BME280;13513;42.700;23.124;2022-11-15T08:00:48;93360.06;;;7.21;100.00
10718;BME280;13513;42.700;23.124;2022-11-15T08:03:19;93354.48;;;7.11;100.00
10718;BME280;13513;42.700;23.124;2022-11-15T08:05:52;93355.36;;;6.89;100.00
10718;BME280;13513;42.700;23.124;2022-11-15T08:08:23;93352.05;;;7.00;100.00
10718;BME280;13513;42.700;23.124;2022-11-15T08:10:54;93348.89;;;7.25;100.00
10718;BME280;13513;42.700;23.124;2022-11-15T08:13:24;93342.16;;;7.45;100.00
10718;BME280;13513;42.700;23.124;2022-11-15T08:16:01;93342.22;;;7.38;100.00
10718;BME280;13513;42.700;23.124;2022-11-15T08:18:32;93341.16;;;7.30;100.00
10718;BME280;13513;42.700;23.124;2022-11-15T08:21:02;93338.35;;;7.41;100.00
10718;BME280;13513;42.700;23.124;2022-11-15T08:23:33;93337.03;;;7.50;100.00
10718;BME280;13513;42.700;23.124;2022-11-15T08:26:05;93339.08;;;7.14;100.00
10718;BME280;13513;42.700;23.124;2022-11-15T08:28:36;93332.27;;;7.31;100.00
10718;BME280;13513;42.700;23.124;2022-11-15T08:31:12;93335.86;;;7.46;100.00
10718;BME280;13513;42.700;23.124;2022-11-15T08:33:38;93335.44;;;7.49;100.00
10718;BME280;13513;42.700;23.124;2022-11-15T08:36:14;93334.97;;;7.34;100.00
10718;BME280;13513;42.700;23.124;2022-11-15T08:38:43;93333.11;;;7.16;100.00
10718;BME280;13513;42.700;23.124;2022-11-15T08:41:25;93326.14;;;7.04;100.00
10718;BME280;13513;42.700;23.124;2022-11-15T08:43:52;93323.16;;;7.09;100.00
10718;BME280;13513;42.700;23.124;2022-11-15T08:46:23;93322.17;;;7.19;100.00
10718;BME280;13513;42.700;23.124;2022-11-15T08:48:54;93325.09;;;7.20;100.00
10718;BME280;13513;42.700;23.124;2022-11-15T08:51:25;93325.34;;;7.37;100.00
10718;BME280;13513;42.700;23.124;2022-11-15T08:53:55;93322.38;;;7.69;100.00
10718;BME280;13513;42.700;23.124;2022-11-15T08:56:26;93315.14;;;7.92;100.00
10718;BME280;13513;42.700;23.124;2022-11-15T08:58:57;93311.92;;;7.99;100.00
10718;BME280;13513;42.700;23.124;2022-11-15T09:01:28;93316.22;;;8.02;100.00
10718;BME280;13513;42.700;23.124;2022-11-15T09:03:59;93310.08;;;8.08;100.00
10718;BME280;13513;42.700;23.124;2022-11-15T09:06:29;93308.41;;;8.23;100.00
10718;BME280;13513;42.700;23.124;2022-11-15T09:09:01;93303.27;;;8.19;100.00
10718;BME280;13513;42.700;23.124;2022-11-15T09:11:32;93303.06;;;8.11;100.00
10718;BME280;13513;42.700;23.124;2022-11-15T09:14:02;93300.69;;;7.83;100.00
10718;BME280;13513;42.700;23.124;2022-11-15T09:16:32;93292.84;;;7.76;100.00
10718;BME280;13513;42.700;23.124;2022-11-15T09:19:02;93289.86;;;7.73;100.00
10718;BME280;13513;42.700;23.124;2022-11-15T09:21:31;93286.78;;;7.40;100.00
10718;BME280;13513;42.700;23.124;2022-11-15T09:24:02;93284.91;;;7.65;100.00
10718;BME280;13513;42.700;23.124;2022-11-15T09:26:33;93278.02;;;7.91;100.00
10718;BME280;13513;42.700;23.124;2022-11-15T09:29:03;93273.66;;;8.14;100.00
10718;BME280;13513;42.700;23.124;2022-11-15T09:31:36;93271.39;;;8.09;100.00
10718;BME280;13513;42.700;23.124;2022-11-15T09:34:07;93272.60;;;7.86;100.00
10718;BME280;13513;42.700;23.124;2022-11-15T09:36:38;93275.83;;;7.70;100.00
10718;BME280;13513;42.700;23.124;2022-11-15T09:39:08;93275.71;;;7.56;100.00
10718;BME280;13513;42.700;23.124;2022-11-15T09:41:58;93272.19;;;7.62;100.00
10718;BME280;13513;42.700;23.124;2022-11-15T09:44:43;93266.64;;;7.61;100.00
10718;BME280;13513;42.700;23.124;2022-11-15T09:47:38;93255.81;;;7.87;100.00
10718;BME280;13513;42.700;23.124;2022-11-15T09:50:12;93259.84;;;7.71;100.00
10718;BME280;13513;42.700;23.124;2022-11-15T09:52:44;93182.59;;;7.54;100.00
10718;BME280;13513;42.700;23.124;2022-11-15T09:55:15;93245.61;;;8.08;100.00
10718;BME280;13513;42.700;23.124;2022-11-15T09:57:50;93243.17;;;8.46;100.00
10718;BME280;13513;42.700;23.124;2022-11-15T10:00:24;93242.13;;;8.67;100.00
10718;BME280;13513;42.700;23.124;2022-11-15T10:05:44;93236.22;;;8.95;100.00
10718;BME280;13513;42.700;23.124;2022-11-15T10:11:23;93226.66;;;8.91;100.00
10718;BME280;13513;42.700;23.124;2022-11-15T10:13:52;93227.95;;;8.68;100.00
10718;BME280;13513;42.700;23.124;2022-11-15T10:19:31;93220.62;;;8.50;100.00
10718;BME280;13513;42.700;23.124;2022-11-15T10:24:52;93211.86;;;8.79;100.00
10718;BME280;13513;42.700;23.124;2022-11-15T10:27:23;93211.41;;;8.50;100.00
10718;BME280;13513;42.700;23.124;2022-11-15T10:29:54;93206.14;;;8.50;100.00
10718;BME280;13513;42.700;23.124;2022-11-15T10:32:25;93199.84;;;8.83;100.00
10718;BME280;13513;42.700;23.124;2022-11-15T10:34:56;93201.23;;;8.97;100.00
10718;BME280;13513;42.700;23.124;2022-11-15T10:37:30;93190.45;;;8.98;100.00
10718;BME280;13513;42.700;23.124;2022-11-15T10:40:05;93184.20;;;8.79;100.00
10718;BME280;13513;42.700;23.124;2022-11-15T10:42:36;93185.52;;;8.79;100.00
10718;BME280;13513;42.700;23.124;2022-11-15T10:45:28;93181.63;;;8.81;100.00
10718;BME280;13513;42.700;23.124;2022-11-15T10:50:43;93171.60;;;8.92;100.00
10718;BME280;13513;42.700;23.124;2022-11-15T10:53:19;93171.98;;;9.10;100.00
10718;BME280;13513;42.700;23.124;2022-11-15T10:55:50;93167.49;;;8.85;100.00
10718;BME280;13513;42.700;23.124;2022-11-15T10:58:31;93163.52;;;8.50;100.00
10718;BME280;13513;42.700;23.124;2022-11-15T11:01:16;93159.16;;;8.67;100.00
10718;BME280;13513;42.700;23.124;2022-11-15T11:04:07;93157.97;;;8.95;100.00
10718;BME280;13513;42.700;23.124;2022-11-15T11:06:21;93152.52;;;8.99;100.00
10718;BME280;13513;42.700;23.124;2022-11-15T11:09:03;93153.00;;;9.22;100.00
10718;BME280;13513;42.700;23.124;2022-11-15T11:11:50;93146.33;;;9.70;100.00
10718;BME280;13513;42.700;23.124;2022-11-15T11:14:23;93146.11;;;10.14;100.00
10718;BME280;13513;42.700;23.124;2022-11-15T11:25:44;93123.67;;;13.40;89.28
10718;BME280;13513;42.700;23.124;2022-11-15T11:44:23;93081.28;;;13.58;81.42
10718;BME280;13513;42.700;23.124;2022-11-15T11:47:01;93080.83;;;13.19;82.00
10718;BME280;13513;42.700;23.124;2022-11-15T11:49:42;93075.16;;;13.57;78.82
10718;BME280;13513;42.700;23.124;2022-11-15T11:52:18;93073.63;;;13.76;79.95
10718;BME280;13513;42.700;23.124;2022-11-15T11:57:38;93067.13;;;14.69;70.40
10718;BME280;13513;42.700;23.124;2022-11-15T12:00:24;93067.03;;;13.96;76.08
10718;BME280;13513;42.700;23.124;2022-11-15T12:03:24;93058.09;;;14.37;73.45
10718;BME280;13513;42.700;23.124;2022-11-15T12:05:55;93062.34;;;14.36;72.25
10718;BME280;13513;42.700;23.124;2022-11-15T12:11:20;93043.55;;;13.51;78.64
10718;BME280;13513;42.700;23.124;2022-11-15T12:13:53;93037.53;;;13.09;81.57
10718;BME280;13513;42.700;23.124;2022-11-15T12:16:26;93037.69;;;12.51;85.75
10718;BME280;13513;42.700;23.124;2022-11-15T12:18:56;93034.31;;;12.23;87.39
10718;BME280;13513;42.700;23.124;2022-11-15T12:24:34;93026.14;;;11.45;93.26
10718;BME280;13513;42.700;23.124;2022-11-15T12:27:20;93024.34;;;10.84;96.37
10718;BME280;13513;42.700;23.124;2022-11-15T12:29:54;93030.05;;;10.57;99.21
10718;BME280;13513;42.700;23.124;2022-11-15T12:32:33;93023.51;;;10.62;100.00
10718;BME280;13513;42.700;23.124;2022-11-15T12:35:05;93025.55;;;10.55;100.00
10718;BME280;13513;42.700;23.124;2022-11-15T12:40:21;93020.53;;;10.75;100.00
10718;BME280;13513;42.700;23.124;2022-11-15T12:45:37;93014.17;;;10.73;100.00
10718;BME280;13513;42.700;23.124;2022-11-15T12:51:07;92997.17;;;10.67;100.00
10718;BME280;13513;42.700;23.124;2022-11-15T12:53:36;93004.08;;;10.32;100.00
10718;BME280;13513;42.700;23.124;2022-11-15T12:58:55;92999.84;;;10.31;100.00
10718;BME280;13513;42.700;23.124;2022-11-15T13:07:03;92998.27;;;10.14;100.00
10718;BME280;13513;42.700;23.124;2022-11-15T13:17:55;92985.03;;;9.81;100.00
10718;BME280;13513;42.700;23.124;2022-11-15T13:20:28;92980.23;;;9.94;100.00
10718;BME280;13513;42.700;23.124;2022-11-15T13:25:52;92976.48;;;9.90;100.00
10718;BME280;13513;42.700;23.124;2022-11-15T13:28:21;92977.25;;;9.72;100.00
10718;BME280;13513;42.700;23.124;2022-11-15T13:30:56;92980.50;;;9.76;100.00
10718;BME280;13513;42.700;23.124;2022-11-15T13:33:37;92976.05;;;9.63;100.00
10718;BME280;13513;42.700;23.124;2022-11-15T13:38:55;92969.94;;;9.76;100.00
10718;BME280;13513;42.700;23.124;2022-11-15T13:41:30;92971.48;;;9.58;100.00
10718;BME280;13513;42.700;23.124;2022-11-15T13:44:02;92969.42;;;9.60;100.00
10718;BME280;13513;42.700;23.124;2022-11-15T13:46:33;92977.25;;;9.72;100.00
10718;BME280;13513;42.700;23.124;2022-11-15T13:49:08;92974.98;;;9.78;100.00
10718;BME280;13513;42.700;23.124;2022-11-15T13:51:49;92974.95;;;9.75;100.00
10718;BME280;13513;42.700;23.124;2022-11-15T13:57:16;92966.25;;;9.77;100.00
10718;BME280;13513;42.700;23.124;2022-11-15T13:59:47;92974.48;;;9.97;100.00
10718;BME280;13513;42.700;23.124;2022-11-15T14:02:21;92976.91;;;10.01;100.00
10718;BME280;13513;42.700;23.124;2022-11-15T14:04:55;92978.71;;;9.98;100.00
10718;BME280;13513;42.700;23.124;2022-11-15T14:07:28;92974.04;;;10.03;100.00
10718;BME280;13513;42.700;23.124;2022-11-15T14:10:03;92976.88;;;9.82;99.99
10718;BME280;13513;42.700;23.124;2022-11-15T14:12:34;92970.54;;;9.64;100.00
10718;BME280;13513;42.700;23.124;2022-11-15T14:17:57;92969.23;;;9.50;100.00
10718;BME280;13513;42.700;23.124;2022-11-15T14:20:31;92967.84;;;9.31;100.00
10718;BME280;13513;42.700;23.124;2022-11-15T14:23:23;92967.73;;;9.24;100.00
10718;BME280;13513;42.700;23.124;2022-11-15T14:25:58;92962.96;;;9.23;100.00
10718;BME280;13513;42.700;23.124;2022-11-15T14:28:32;92964.20;;;9.18;100.00
10718;BME280;13513;42.700;23.124;2022-11-15T14:31:04;92964.01;;;9.22;100.00
10718;BME280;13513;42.700;23.124;2022-11-15T14:33:34;92966.87;;;9.21;100.00
10718;BME280;13513;42.700;23.124;2022-11-15T14:36:11;92967.42;;;9.23;100.00
10718;BME280;13513;42.700;23.124;2022-11-15T14:38:38;92973.85;;;9.13;100.00
10718;BME280;13513;42.700;23.124;2022-11-15T14:41:20;92969.62;;;9.12;100.00
10718;BME280;13513;42.700;23.124;2022-11-15T14:43:51;92964.90;;;9.14;100.00
10718;BME280;13513;42.700;23.124;2022-11-15T14:46:23;92970.67;;;9.13;100.00
10718;BME280;13513;42.700;23.124;2022-11-15T14:48:54;92964.51;;;9.08;100.00
10718;BME280;13513;42.700;23.124;2022-11-15T14:51:24;92964.63;;;9.13;100.00
10718;BME280;13513;42.700;23.124;2022-11-15T14:53:55;92966.26;;;9.16;100.00
10718;BME280;13513;42.700;23.124;2022-11-15T14:56:25;92967.30;;;9.15;100.00
10718;BME280;13513;42.700;23.124;2022-11-15T14:58:56;92960.29;;;9.21;100.00
10718;BME280;13513;42.700;23.124;2022-11-15T15:01:28;92962.22;;;9.11;100.00
10718;BME280;13513;42.700;23.124;2022-11-15T15:03:58;92954.78;;;9.08;100.00
10718;BME280;13513;42.700;23.124;2022-11-15T15:06:29;92953.46;;;9.08;100.00